createdAt,value
2018-12-01T00:02:14.063Z,-8.20
2018-12-01T00:04:42.048Z,-8.20
2018-12-01T00:07:10.033Z,-8.20
2018-12-01T00:09:38.048Z,-8.30
2018-12-01T00:12:06.153Z,-8.30
2018-12-01T00:14:34.166Z,-8.30
2018-12-01T00:17:02.130Z,-8.30
2018-12-01T00:19:30.107Z,-8.30
2018-12-01T00:21:58.107Z,-8.30
2018-12-01T00:24:26.130Z,-8.30
2018-12-01T00:26:54.140Z,-8.30
2018-12-01T00:29:22.155Z,-8.30
2018-12-01T00:31:50.190Z,-8.30
2018-12-01T00:34:18.153Z,-8.40
2018-12-01T00:36:46.117Z,-8.40
2018-12-01T00:39:14.186Z,-8.40
2018-12-01T00:41:42.163Z,-8.40
2018-12-01T00:44:10.153Z,-8.40
2018-12-01T00:46:38.149Z,-8.40
2018-12-01T00:49:06.112Z,-8.40
2018-12-01T00:51:34.104Z,-8.40
2018-12-01T00:54:02.208Z,-8.50
2018-12-01T00:56:30.196Z,-8.40
2018-12-01T00:58:58.176Z,-8.50
2018-12-01T01:01:26.164Z,-8.50
2018-12-01T01:03:54.161Z,-8.50
2018-12-01T01:06:22.182Z,-8.50
2018-12-01T01:08:50.160Z,-8.60
2018-12-01T01:11:18.163Z,-8.50
2018-12-01T01:13:46.122Z,-8.60
2018-12-01T01:16:14.109Z,-8.60
2018-12-01T01:18:42.100Z,-8.60
2018-12-01T01:21:10.072Z,-8.60
2018-12-01T01:23:38.060Z,-8.70
2018-12-01T01:26:06.052Z,-8.60
2018-12-01T01:28:34.030Z,-8.70
2018-12-01T01:31:02.063Z,-8.70
2018-12-01T01:33:30.449Z,-8.70
2018-12-01T01:35:58.429Z,-8.70
2018-12-01T01:38:26.518Z,-8.70
2018-12-01T01:41:00.014Z,-8.70
2018-12-01T01:43:28.033Z,-8.70
2018-12-01T01:45:56.053Z,-8.70
2018-12-01T01:48:23.999Z,-8.80
2018-12-01T01:50:51.977Z,-8.80
2018-12-01T01:53:20.038Z,-8.80
2018-12-01T01:55:48.012Z,-8.80
2018-12-01T01:58:16.033Z,-8.80
2018-12-01T02:00:44.038Z,-8.80
2018-12-01T02:03:12.046Z,-8.80
2018-12-01T02:05:40.074Z,-8.80
2018-12-01T02:08:08.058Z,-8.90
2018-12-01T02:10:36.031Z,-8.90
2018-12-01T02:13:04.174Z,-8.80
2018-12-01T02:15:32.176Z,-8.90
2018-12-01T02:18:00.185Z,-8.80
2018-12-01T02:20:28.213Z,-8.80
2018-12-01T02:22:56.254Z,-8.80
2018-12-01T02:25:24.257Z,-8.90
2018-12-01T02:27:52.612Z,-8.90
2018-12-01T02:30:20.991Z,-8.90
2018-12-01T02:32:49.274Z,-8.90
2018-12-01T02:35:18.618Z,-8.90
2018-12-01T02:37:46.597Z,-8.90
2018-12-01T02:40:14.659Z,-8.90
2018-12-01T02:42:43.081Z,-9.00
2018-12-01T02:45:22.368Z,-9.00
2018-12-01T02:47:50.399Z,-9.00
2018-12-01T02:50:24.913Z,-9.10
2018-12-01T02:52:53.759Z,-9.10
2018-12-01T02:55:21.765Z,-9.10
2018-12-01T02:57:49.875Z,-9.10
2018-12-01T03:00:17.906Z,-9.10
2018-12-01T03:02:45.882Z,-9.10
2018-12-01T03:05:13.896Z,-9.20
2018-12-01T03:07:41.920Z,-9.20
2018-12-01T03:10:13.834Z,-9.30
2018-12-01T03:12:41.825Z,-9.30
2018-12-01T03:15:12.544Z,-9.30
2018-12-01T03:17:40.633Z,-9.30
2018-12-01T03:20:11.655Z,-9.30
2018-12-01T03:22:39.689Z,-9.40
2018-12-01T03:25:10.047Z,-9.40
2018-12-01T03:27:38.385Z,-9.40
2018-12-01T03:30:10.668Z,-9.40
2018-12-01T03:32:38.713Z,-9.50
2018-12-01T03:35:12.425Z,-9.50
2018-12-01T03:37:43.108Z,-9.50
2018-12-01T03:40:11.892Z,-9.50
2018-12-01T03:42:39.920Z,-9.60
2018-12-01T03:45:10.432Z,-9.60
2018-12-01T03:47:38.473Z,-9.60
2018-12-01T03:50:07.841Z,-9.60
2018-12-01T03:52:35.840Z,-9.60
2018-12-01T03:55:04.209Z,-9.70
2018-12-01T03:57:32.176Z,-9.70
2018-12-01T04:00:00.178Z,-9.70
2018-12-01T04:02:28.150Z,-9.70
2018-12-01T04:04:56.149Z,-9.80
2018-12-01T04:07:24.144Z,-9.80
2018-12-01T04:09:52.136Z,-9.80
2018-12-01T04:12:20.148Z,-9.80
2018-12-01T04:14:48.160Z,-9.90
2018-12-01T04:17:16.132Z,-9.90
2018-12-01T04:19:44.106Z,-9.90
2018-12-01T04:22:12.118Z,-10.00
2018-12-01T04:24:40.060Z,-10.00
2018-12-01T04:27:08.024Z,-10.00
2018-12-01T04:29:36.068Z,-10.00
2018-12-01T04:32:04.080Z,-10.00
2018-12-01T04:34:32.094Z,-10.00
2018-12-01T04:37:00.080Z,-10.10
2018-12-01T04:39:28.096Z,-10.10
2018-12-01T04:41:56.064Z,-10.10
2018-12-01T04:44:24.087Z,-10.10
2018-12-01T04:46:52.068Z,-10.10
2018-12-01T04:49:20.028Z,-10.10
2018-12-01T04:51:48.053Z,-10.10
2018-12-01T04:54:16.046Z,-10.20
2018-12-01T04:56:44.010Z,-10.20
2018-12-01T04:59:12.019Z,-10.10
2018-12-01T05:01:40.034Z,-10.10
2018-12-01T05:04:08.024Z,-10.10
2018-12-01T05:06:36.084Z,-10.20
2018-12-01T05:09:06.344Z,-10.20
2018-12-01T05:11:34.372Z,-10.20
2018-12-01T05:14:02.515Z,-10.20
2018-12-01T05:16:30.508Z,-10.30
2018-12-01T05:18:58.478Z,-10.30
2018-12-01T05:21:26.536Z,-10.40
2018-12-01T05:23:54.533Z,-10.40
2018-12-01T05:26:22.510Z,-10.50
2018-12-01T05:28:50.542Z,-10.60
2018-12-01T05:31:18.536Z,-10.70
2018-12-01T05:33:46.518Z,-10.70
2018-12-01T05:36:14.543Z,-10.80
2018-12-01T05:38:42.533Z,-10.70
2018-12-01T05:41:10.512Z,-10.80
2018-12-01T05:43:38.547Z,-10.70
2018-12-01T05:46:06.548Z,-10.70
2018-12-01T05:48:34.528Z,-10.80
2018-12-01T05:51:02.535Z,-10.80
2018-12-01T05:53:30.528Z,-10.80
2018-12-01T05:55:58.514Z,-10.80
2018-12-01T05:58:26.516Z,-10.80
2018-12-01T06:00:54.506Z,-10.80
2018-12-01T06:03:22.482Z,-10.70
2018-12-01T06:05:50.496Z,-10.70
2018-12-01T06:08:18.477Z,-10.70
2018-12-01T06:10:46.590Z,-10.70
2018-12-01T06:13:14.573Z,-10.70
2018-12-01T06:15:42.588Z,-10.80
2018-12-01T06:18:10.578Z,-10.80
2018-12-01T06:20:38.624Z,-10.80
2018-12-01T06:23:06.615Z,-10.80
2018-12-01T06:25:34.621Z,-10.90
2018-12-01T06:28:02.686Z,-10.90
2018-12-01T06:30:30.670Z,-10.90
2018-12-01T06:32:58.703Z,-11.00
2018-12-01T06:35:26.721Z,-10.90
2018-12-01T06:37:54.734Z,-11.00
2018-12-01T06:40:22.755Z,-10.90
2018-12-01T06:42:50.793Z,-10.90
2018-12-01T06:45:18.974Z,-10.90
2018-12-01T06:47:47.034Z,-10.80
2018-12-01T06:50:17.424Z,-10.90
2018-12-01T06:52:45.461Z,-10.90
2018-12-01T06:55:14.023Z,-10.90
2018-12-01T06:57:43.080Z,-10.90
2018-12-01T07:00:12.532Z,-10.80
2018-12-01T07:02:40.917Z,-10.80
2018-12-01T07:05:10.279Z,-10.70
2018-12-01T07:07:38.266Z,-10.70
2018-12-01T07:10:09.866Z,-10.60
2018-12-01T07:12:37.930Z,-10.60
2018-12-01T07:15:08.318Z,-10.40
2018-12-01T07:17:36.374Z,-10.30
2018-12-01T07:20:05.159Z,-10.40
2018-12-01T07:22:33.156Z,-10.30
2018-12-01T07:25:01.182Z,-10.20
2018-12-01T07:27:29.184Z,-10.10
2018-12-01T07:29:58.197Z,-10.10
2018-12-01T07:32:25.268Z,-10.10
2018-12-01T07:34:53.253Z,-10.00
2018-12-01T07:37:21.257Z,-9.90
2018-12-01T07:39:49.275Z,-9.80
2018-12-01T07:42:18.069Z,-9.70
2018-12-01T07:44:47.042Z,-9.50
2018-12-01T07:47:14.164Z,-9.20
2018-12-01T07:49:42.178Z,-8.80
2018-12-01T07:52:10.182Z,-8.50
2018-12-01T07:54:38.196Z,-8.40
2018-12-01T07:57:06.210Z,-8.30
2018-12-01T07:59:34.194Z,-8.20
2018-12-01T08:02:02.180Z,-7.90
2018-12-01T08:04:30.140Z,-8.10
2018-12-01T08:06:58.161Z,-8.30
2018-12-01T08:09:26.165Z,-8.50
2018-12-01T08:11:54.192Z,-8.50
2018-12-01T08:14:22.211Z,-8.50
2018-12-01T08:16:50.351Z,-8.50
2018-12-01T08:19:18.351Z,-8.40
2018-12-01T08:21:46.314Z,-8.30
2018-12-01T08:24:14.351Z,-8.30
2018-12-01T08:26:42.415Z,-8.30
2018-12-01T08:29:10.428Z,-8.20
2018-12-01T08:31:38.478Z,-8.10
2018-12-01T08:34:06.487Z,-8.10
2018-12-01T08:36:34.505Z,-8.10
2018-12-01T08:39:02.653Z,-8.00
2018-12-01T08:41:32.185Z,-8.00
2018-12-01T08:44:00.185Z,-8.00
2018-12-01T08:46:28.160Z,-7.90
2018-12-01T08:48:56.161Z,-7.80
2018-12-01T08:51:24.188Z,-7.70
2018-12-01T08:53:52.217Z,-7.60
2018-12-01T08:56:20.187Z,-7.50
2018-12-01T08:58:48.173Z,-7.40
2018-12-01T09:01:16.181Z,-7.30
2018-12-01T09:03:44.156Z,-7.20
2018-12-01T09:06:12.098Z,-7.30
2018-12-01T09:08:40.105Z,-7.20
2018-12-01T09:11:08.085Z,-7.10
2018-12-01T09:13:36.099Z,-7.00
2018-12-01T09:16:04.222Z,-6.90
2018-12-01T09:18:32.256Z,-6.90
2018-12-01T09:21:00.293Z,-6.90
2018-12-01T09:23:28.319Z,-7.00
2018-12-01T09:25:56.359Z,-6.70
2018-12-01T09:28:24.398Z,-6.60
2018-12-01T09:30:52.473Z,-6.50
2018-12-01T09:33:20.601Z,-6.50
2018-12-01T09:35:48.599Z,-6.50
2018-12-01T09:38:16.617Z,-6.40
2018-12-01T09:40:44.626Z,-6.40
2018-12-01T09:43:12.679Z,-6.30
2018-12-01T09:45:40.728Z,-6.30
2018-12-01T09:48:08.859Z,-6.10
2018-12-01T09:50:36.865Z,-6.10
2018-12-01T09:53:05.337Z,-6.10
2018-12-01T09:55:33.285Z,-6.00
2018-12-01T09:58:01.269Z,-5.80
2018-12-01T10:00:31.563Z,-5.70
2018-12-01T10:03:03.587Z,-5.60
2018-12-01T10:05:32.344Z,-5.60
2018-12-01T10:08:00.389Z,-5.70
2018-12-01T10:10:29.733Z,-5.70
2018-12-01T10:12:58.066Z,-5.40
2018-12-01T10:15:27.222Z,-5.20
2018-12-01T10:17:55.445Z,-5.10
2018-12-01T10:20:24.855Z,-5.20
2018-12-01T10:22:52.882Z,-5.20
2018-12-01T10:25:20.906Z,-5.20
2018-12-01T10:27:48.928Z,-5.20
2018-12-01T10:30:20.613Z,-5.20
2018-12-01T10:32:49.453Z,-5.10
2018-12-01T10:35:20.791Z,-5.10
2018-12-01T10:37:54.460Z,-5.00
2018-12-01T10:40:22.481Z,-5.00
2018-12-01T10:42:50.491Z,-4.80
2018-12-01T10:45:19.438Z,-4.80
2018-12-01T10:47:47.550Z,-4.70
2018-12-01T10:50:16.740Z,-4.70
2018-12-01T10:52:45.742Z,-4.60
2018-12-01T10:55:29.328Z,-4.60
2018-12-01T10:58:01.583Z,-4.50
2018-12-01T11:00:35.760Z,-4.40
2018-12-01T11:03:04.022Z,-4.40
2018-12-01T11:05:32.540Z,-4.40
2018-12-01T11:08:00.661Z,-4.30
2018-12-01T11:10:28.698Z,-4.30
2018-12-01T11:12:56.715Z,-4.20
2018-12-01T11:15:24.814Z,-4.20
2018-12-01T11:17:52.926Z,-4.20
2018-12-01T11:20:20.942Z,-4.20
2018-12-01T11:22:48.960Z,-4.20
2018-12-01T11:25:16.998Z,-4.20
2018-12-01T11:27:45.057Z,-4.10
2018-12-01T11:30:14.599Z,-4.00
2018-12-01T11:32:42.648Z,-4.00
2018-12-01T11:35:10.719Z,-3.90
2018-12-01T11:37:38.829Z,-3.80
2018-12-01T11:40:12.218Z,-3.80
2018-12-01T11:42:40.334Z,-3.80
2018-12-01T11:45:09.889Z,-3.70
2018-12-01T11:47:37.982Z,-3.70
2018-12-01T11:50:09.353Z,-3.60
2018-12-01T11:52:37.347Z,-3.50
2018-12-01T11:55:07.799Z,-3.50
2018-12-01T11:57:35.838Z,-3.60
2018-12-01T12:00:07.498Z,-3.70
2018-12-01T12:02:35.558Z,-3.70
2018-12-01T12:05:03.752Z,-3.60
2018-12-01T12:07:42.976Z,-3.60
2018-12-01T12:10:10.996Z,-3.70
2018-12-01T12:12:39.050Z,-3.70
2018-12-01T12:15:09.008Z,-3.60
2018-12-01T12:17:37.258Z,-3.60
2018-12-01T12:20:07.248Z,-3.60
2018-12-01T12:22:35.338Z,-3.60
2018-12-01T12:25:03.929Z,-3.60
2018-12-01T12:27:31.974Z,-3.60
2018-12-01T12:30:00.020Z,-3.60
2018-12-01T12:32:28.226Z,-3.60
2018-12-01T12:34:56.227Z,-3.60
2018-12-01T12:37:24.267Z,-3.60
2018-12-01T12:39:52.282Z,-3.60
2018-12-01T12:42:20.474Z,-3.60
2018-12-01T12:44:48.510Z,-3.60
2018-12-01T12:47:16.489Z,-3.70
2018-12-01T12:49:44.498Z,-3.70
2018-12-01T12:52:12.526Z,-3.70
2018-12-01T12:54:40.624Z,-3.70
2018-12-01T12:57:08.699Z,-3.70
2018-12-01T12:59:36.702Z,-3.70
2018-12-01T13:02:05.334Z,-3.70
2018-12-01T13:04:33.344Z,-3.80
2018-12-01T13:07:01.332Z,-3.80
2018-12-01T13:09:29.372Z,-3.80
2018-12-01T13:11:57.529Z,-3.80
2018-12-01T13:14:25.740Z,-3.80
2018-12-01T13:16:53.934Z,-3.80
2018-12-01T13:19:22.110Z,-3.80
2018-12-01T13:21:50.367Z,-3.80
2018-12-01T13:24:18.555Z,-3.90
2018-12-01T13:26:46.877Z,-3.90
2018-12-01T13:29:15.129Z,-4.00
2018-12-01T13:31:43.409Z,-4.00
2018-12-01T13:34:11.727Z,-4.10
2018-12-01T13:36:40.093Z,-4.10
2018-12-01T13:39:09.644Z,-4.10
2018-12-01T13:41:37.872Z,-4.10
2018-12-01T13:44:06.174Z,-4.10
2018-12-01T13:46:34.432Z,-4.10
2018-12-01T13:49:02.688Z,-4.20
2018-12-01T13:51:30.991Z,-4.20
2018-12-01T13:53:59.244Z,-4.30
2018-12-01T13:56:27.448Z,-4.30
2018-12-01T13:58:55.791Z,-4.40
2018-12-01T14:01:24.033Z,-4.50
2018-12-01T14:03:52.488Z,-4.50
2018-12-01T14:06:20.780Z,-4.50
2018-12-01T14:08:48.978Z,-4.50
2018-12-01T14:11:17.279Z,-4.60
2018-12-01T14:13:45.542Z,-4.70
2018-12-01T14:16:13.773Z,-4.70
2018-12-01T14:18:42.069Z,-4.80
2018-12-01T14:21:10.307Z,-4.90
2018-12-01T14:23:38.639Z,-5.00
2018-12-01T14:26:06.915Z,-5.10
2018-12-01T14:28:35.151Z,-5.20
2018-12-01T14:31:03.433Z,-5.30
2018-12-01T14:33:31.696Z,-5.40
2018-12-01T14:35:59.929Z,-5.50
2018-12-01T14:38:28.125Z,-5.50
2018-12-01T14:40:56.301Z,-5.60
2018-12-01T14:43:24.878Z,-5.60
2018-12-01T14:45:53.053Z,-5.70
2018-12-01T14:48:21.222Z,-5.70
2018-12-01T14:50:49.293Z,-5.80
2018-12-01T14:53:18.245Z,-5.70
2018-12-01T14:55:46.241Z,-5.80
2018-12-01T14:58:14.268Z,-5.80
2018-12-01T15:00:42.289Z,-5.80
2018-12-01T15:03:10.371Z,-5.80
2018-12-01T15:05:39.625Z,-5.90
2018-12-01T15:08:07.823Z,-6.00
2018-12-01T15:10:36.126Z,-6.00
2018-12-01T15:13:04.255Z,-6.10
2018-12-01T15:15:32.327Z,-6.10
2018-12-01T15:18:00.413Z,-6.10
2018-12-01T15:20:28.565Z,-6.10
2018-12-01T15:22:58.496Z,-6.10
2018-12-01T15:25:31.954Z,-6.20
2018-12-01T15:28:00.860Z,-6.20
2018-12-01T15:30:29.852Z,-6.30
2018-12-01T15:33:01.133Z,-6.40
2018-12-01T15:35:29.241Z,-6.50
2018-12-01T15:37:57.981Z,-6.60
2018-12-01T15:40:26.072Z,-6.60
2018-12-01T15:42:54.169Z,-6.70
2018-12-01T15:45:22.824Z,-6.70
2018-12-01T15:47:51.000Z,-6.70
2018-12-01T15:50:20.221Z,-6.80
2018-12-01T15:52:51.194Z,-6.80
2018-12-01T15:55:19.516Z,-6.90
2018-12-01T15:57:47.630Z,-7.00
2018-12-01T16:00:18.671Z,-7.00
2018-12-01T16:02:46.799Z,-7.00
2018-12-01T16:05:15.903Z,-7.10
2018-12-01T16:07:44.140Z,-7.10
2018-12-01T16:10:14.256Z,-7.10
2018-12-01T16:12:42.682Z,-7.20
2018-12-01T16:15:21.416Z,-7.20
2018-12-01T16:17:49.600Z,-7.20
2018-12-01T16:20:17.645Z,-7.30
2018-12-01T16:22:45.839Z,-7.30
2018-12-01T16:25:15.964Z,-7.40
2018-12-01T16:27:44.969Z,-7.40
2018-12-01T16:30:45.158Z,-7.50
2018-12-01T16:33:18.715Z,-7.60
2018-12-01T16:35:45.548Z,-7.70
2018-12-01T16:38:16.348Z,-7.70
2018-12-01T16:40:46.312Z,-7.80
2018-12-01T16:43:14.906Z,-7.90
2018-12-01T16:45:44.057Z,-8.00
2018-12-01T16:48:12.152Z,-8.00
2018-12-01T16:50:40.786Z,-8.10
2018-12-01T16:53:10.480Z,-8.10
2018-12-01T16:55:38.755Z,-8.10
2018-12-01T16:58:06.764Z,-8.00
2018-12-01T17:00:34.801Z,-8.00
2018-12-01T17:03:02.821Z,-8.00
2018-12-01T17:05:32.227Z,-8.00
2018-12-01T17:08:02.124Z,-8.00
2018-12-01T17:10:30.082Z,-8.00
2018-12-01T17:12:58.442Z,-8.00
2018-12-01T17:15:26.256Z,-8.00
2018-12-01T17:17:54.347Z,-8.00
2018-12-01T17:20:22.376Z,-8.10
2018-12-01T17:22:53.500Z,-8.10
2018-12-01T17:25:21.597Z,-8.10
2018-12-01T17:27:50.492Z,-8.10
2018-12-01T17:30:22.485Z,-8.10
2018-12-01T17:32:51.110Z,-8.10
2018-12-01T17:35:20.508Z,-8.10
2018-12-01T17:37:49.890Z,-8.10
2018-12-01T17:40:22.828Z,-8.00
2018-12-01T17:42:53.037Z,-8.00
2018-12-01T17:45:21.109Z,-8.10
2018-12-01T17:47:49.787Z,-8.10
2018-12-01T17:50:17.976Z,-8.20
2018-12-01T17:52:48.663Z,-8.20
2018-12-01T17:55:16.948Z,-8.20
2018-12-01T17:57:45.549Z,-8.20
2018-12-01T18:00:16.098Z,-8.20
2018-12-01T18:02:43.981Z,-8.20
2018-12-01T18:05:13.673Z,-8.20
2018-12-01T18:07:42.516Z,-8.20
2018-12-01T18:10:12.703Z,-8.10
2018-12-01T18:12:41.284Z,-8.10
2018-12-01T18:15:13.397Z,-8.10
2018-12-01T18:17:41.608Z,-8.10
2018-12-01T18:20:20.020Z,-8.20
2018-12-01T18:23:05.319Z,-8.30
2018-12-01T18:25:39.108Z,-8.40
2018-12-01T18:28:08.159Z,-8.40
2018-12-01T18:30:37.348Z,-8.40
2018-12-01T18:33:07.774Z,-8.50
2018-12-01T18:35:35.779Z,-8.50
2018-12-01T18:38:03.849Z,-8.50
2018-12-01T18:40:33.868Z,-8.50
2018-12-01T18:43:01.890Z,-8.40
2018-12-01T18:45:29.934Z,-8.50
2018-12-01T18:47:58.273Z,-8.40
2018-12-01T18:50:26.323Z,-8.40
2018-12-01T18:52:58.306Z,-8.40
2018-12-01T18:55:27.562Z,-8.40
2018-12-01T18:57:55.679Z,-8.30
2018-12-01T19:00:26.264Z,-8.30
2018-12-01T19:02:54.260Z,-8.30
2018-12-01T19:05:22.332Z,-8.30
2018-12-01T19:07:51.067Z,-8.30
2018-12-01T19:10:19.372Z,-8.30
2018-12-01T19:12:47.496Z,-8.20
2018-12-01T19:15:16.737Z,-8.20
2018-12-01T19:17:45.998Z,-8.20
2018-12-01T19:20:15.794Z,-8.10
2018-12-01T19:22:44.236Z,-8.10
2018-12-01T19:25:14.912Z,-8.00
2018-12-01T19:27:43.116Z,-8.00
2018-12-01T19:30:13.125Z,-8.00
2018-12-01T19:32:41.977Z,-8.00
2018-12-01T19:35:12.424Z,-8.00
2018-12-01T19:37:40.640Z,-8.00
2018-12-01T19:40:14.222Z,-8.00
2018-12-01T19:42:42.344Z,-8.00
2018-12-01T19:45:10.675Z,-7.90
2018-12-01T19:47:38.732Z,-7.90
2018-12-01T19:50:15.444Z,-7.80
2018-12-01T19:52:43.490Z,-7.70
2018-12-01T19:55:12.562Z,-7.70
2018-12-01T19:57:41.164Z,-7.70
2018-12-01T20:00:13.570Z,-7.70
2018-12-01T20:02:41.708Z,-7.70
2018-12-01T20:05:12.702Z,-7.70
2018-12-01T20:07:40.942Z,-7.60
2018-12-01T20:10:11.898Z,-7.60
2018-12-01T20:12:40.004Z,-7.60
2018-12-01T20:15:16.290Z,-7.60
2018-12-01T20:17:44.328Z,-7.50
2018-12-01T20:20:12.344Z,-7.40
2018-12-01T20:22:40.492Z,-7.30
2018-12-01T20:25:10.606Z,-7.20
2018-12-01T20:27:38.632Z,-7.10
2018-12-01T20:30:13.808Z,-7.10
2018-12-01T20:32:41.851Z,-7.00
2018-12-01T20:35:11.215Z,-6.90
2018-12-01T20:37:40.142Z,-6.80
2018-12-01T20:40:11.578Z,-6.70
2018-12-01T20:42:39.654Z,-6.60
2018-12-01T20:45:09.796Z,-6.60
2018-12-01T20:47:37.838Z,-6.60
2018-12-01T20:50:13.508Z,-6.60
2018-12-01T20:52:41.821Z,-6.50
2018-12-01T20:55:12.093Z,-6.50
2018-12-01T20:57:40.380Z,-6.50
2018-12-01T21:00:10.899Z,-6.40
2018-12-01T21:02:39.868Z,-6.40
2018-12-01T21:05:10.943Z,-6.30
2018-12-01T21:07:38.941Z,-6.30
2018-12-01T21:10:10.776Z,-6.30
2018-12-01T21:12:38.744Z,-6.20
2018-12-01T21:15:10.064Z,-6.20
2018-12-01T21:17:38.754Z,-6.10
2018-12-01T21:20:13.051Z,-6.10
2018-12-01T21:22:42.312Z,-6.00
2018-12-01T21:25:12.691Z,-6.00
2018-12-01T21:27:40.732Z,-5.90
2018-12-01T21:30:15.201Z,-5.90
2018-12-01T21:32:43.455Z,-5.80
2018-12-01T21:35:12.662Z,-5.80
2018-12-01T21:37:40.874Z,-5.70
2018-12-01T21:40:13.607Z,-5.70
2018-12-01T21:42:41.663Z,-5.70
2018-12-01T21:45:10.893Z,-5.70
2018-12-01T21:47:38.936Z,-5.70
2018-12-01T21:50:09.816Z,-5.60
2018-12-01T21:52:37.830Z,-5.60
2018-12-01T21:55:08.667Z,-5.60
2018-12-01T21:57:36.728Z,-5.60
2018-12-01T22:00:12.066Z,-5.50
2018-12-01T22:02:40.187Z,-5.50
2018-12-01T22:05:11.418Z,-5.40
2018-12-01T22:07:39.417Z,-5.40
2018-12-01T22:10:12.209Z,-5.40
2018-12-01T22:12:40.171Z,-5.40
2018-12-01T22:15:13.067Z,-5.30
2018-12-01T22:17:41.121Z,-5.30
2018-12-01T22:20:13.651Z,-5.30
2018-12-01T22:22:41.675Z,-5.30
2018-12-01T22:25:10.435Z,-5.30
2018-12-01T22:27:38.635Z,-5.10
2018-12-01T22:30:10.840Z,-5.30
2018-12-01T22:32:38.879Z,-5.20
2018-12-01T22:35:10.668Z,-5.20
2018-12-01T22:37:38.716Z,-5.20
2018-12-01T22:40:23.369Z,-5.20
2018-12-01T22:42:52.934Z,-5.10
2018-12-01T22:45:20.955Z,-5.10
2018-12-01T22:47:49.075Z,-5.10
2018-12-01T22:50:19.277Z,-5.00
2018-12-01T22:52:47.665Z,-5.00
2018-12-01T22:55:17.889Z,-4.90
2018-12-01T22:57:48.798Z,-4.90
2018-12-01T23:00:20.635Z,-4.90
2018-12-01T23:02:48.796Z,-4.90
2018-12-01T23:05:17.117Z,-4.90
2018-12-01T23:07:44.981Z,-4.80
2018-12-01T23:10:14.220Z,-4.80
2018-12-01T23:12:42.899Z,-4.80
2018-12-01T23:15:16.204Z,-4.70
2018-12-01T23:17:46.401Z,-4.70
2018-12-01T23:20:17.686Z,-4.70
2018-12-01T23:22:45.871Z,-4.70
2018-12-01T23:25:13.887Z,-4.70
2018-12-01T23:27:41.959Z,-4.70
2018-12-01T23:30:16.971Z,-4.70
2018-12-01T23:32:46.219Z,-4.60
2018-12-01T23:35:14.267Z,-4.60
2018-12-01T23:37:42.268Z,-4.60
2018-12-01T23:40:11.718Z,-4.60
2018-12-01T23:42:39.923Z,-4.50
2018-12-01T23:45:13.053Z,-4.50
2018-12-01T23:47:41.103Z,-4.40
2018-12-01T23:50:19.905Z,-4.40
2018-12-01T23:52:49.701Z,-4.40
2018-12-01T23:55:17.715Z,-4.30
2018-12-01T23:57:45.735Z,-4.30
